Main page
METAR-TAF:

METAR-TAF

Airports :

Noi Bai International Airport

Hanoi, Vietnam

latitude: 21-01N, longitude: 105-48E, elevation: 6 m

Current weather observation

The report was made 23 minutes ago, at 18:00 UTC
Wind 8 kt from the North
Temperature 13°C
Humidity 77%
Pressure 1019 hPa
Visibility 10 km or more
Few clouds at a height of 3200 ft

METAR: VVNB 251800Z 01008KT 9999 FEW032 13/09 Q1019 NOSIG

Time: 01:23 (18:23 UTC)

Forecast

The report was made 1 hour and 23 minutes ago, at 17:00 UTC
Forecast valid from 25 at 18 UTC to 26 at 18 UTC
Wind 12 kt from the North/Northeast
Visibility 10 km or more
Scattered clouds at a height of 2000 ft
Broken clouds at a height of 4000 ft
Temporary
from 25 at 18 UTC to 25 at 21 UTC
Visibility: 4000 m
Scattered clouds at a height of 1000 ft
Few clouds at a height of 2700 ft, Cumulonimbus.
Broken clouds at a height of 4000 ft
thunderstorm, rain

TAF: VVNB 251700Z 2518/2618 02012KT 9999 SCT020 BKN040 TEMPO 2518/2521 4000 TSRA SCT010 FEW027CB BKN040

Weather observations and forecasts of more than 4000 airports (METAR and TAF reports).

The available stations are represented by yellow and red dots on the map.

Hover mouse over dot to see the name of the station.

Then click to see weather observations and forecasts.

To change the map : click on the green buttons with a black cross to zoom in, on the green button with a dash to zoom out, or on the green arrows for adjacent maps.


METAR-TAF: